Time;durP1;ratioP1;P1;durP2;ratioP2;P2;SDS_P1;SDS_P2;PMS_P1;PMS_P2;Temp;Humidity;BMP_temperature;BMP_pressure;BME280_temperature;BME280_humidity;BME280_pressure;Samples;Min_cycle;Max_cycle;Signal;HPM_P1;HPM_P2
2023/09/23 00:02:17;;;;;;;0.20;0.20;;;12.50;99.90;;;;;;5083894;28;20201;-80
2023/09/23 00:04:43;;;;;;;0.20;0.20;;;12.40;99.90;;;;;;5092298;28;20496;-80
2023/09/23 00:07:09;;;;;;;0.20;0.20;;;12.40;99.90;;;;;;5092366;28;20450;-80
2023/09/23 00:09:36;;;;;;;0.20;0.20;;;12.40;99.90;;;;;;5087337;28;20196;-80
2023/09/23 00:12:02;;;;;;;0.20;0.20;;;12.40;99.90;;;;;;5099683;28;20195;-80
2023/09/23 00:14:31;;;;;;;0.20;0.20;;;12.40;99.90;;;;;;5090014;28;20546;-80
2023/09/23 00:16:57;;;;;;;0.20;0.20;;;12.40;99.90;;;;;;5088283;28;20447;-80
2023/09/23 00:19:22;;;;;;;0.10;0.10;;;12.30;99.90;;;;;;5091790;28;20451;-80
2023/09/23 00:21:48;;;;;;;0.20;0.20;;;12.40;99.90;;;;;;5092713;28;20215;-80
2023/09/23 00:24:14;;;;;;;0.20;0.20;;;12.30;99.90;;;;;;5077834;28;20454;-80
2023/09/23 00:26:40;;;;;;;0.10;0.10;;;12.40;99.90;;;;;;5093209;28;20446;-80
2023/09/23 00:29:06;;;;;;;0.20;0.20;;;12.40;99.90;;;;;;5078824;28;20444;-80
2023/09/23 00:31:31;;;;;;;0.20;0.20;;;12.30;99.90;;;;;;5088865;28;20277;-80
2023/09/23 00:33:57;;;;;;;0.20;0.20;;;12.40;99.90;;;;;;5086921;28;20229;-80
2023/09/23 00:36:22;;;;;;;0.20;0.20;;;12.30;99.90;;;;;;5093865;28;20217;-80
2023/09/23 00:38:48;;;;;;;0.20;0.20;;;12.30;99.90;;;;;;5091046;28;20185;-80
2023/09/23 00:41:14;;;;;;;0.20;0.20;;;12.20;99.90;;;;;;5076273;28;20264;-79
2023/09/23 00:43:40;;;;;;;0.20;0.20;;;12.20;99.90;;;;;;5072352;28;20177;-80
2023/09/23 00:46:07;;;;;;;0.20;0.20;;;12.20;99.90;;;;;;5092206;28;20499;-80
2023/09/23 00:48:44;;;;;;;0.20;0.20;;;12.20;99.90;;;;;;5088757;28;20806;-80
2023/09/23 00:51:10;;;;;;;0.20;0.20;;;12.10;99.90;;;;;;5079806;28;20488;-80
2023/09/23 00:53:39;;;;;;;0.20;0.20;;;12.20;99.90;;;;;;5092395;28;20841;-80
2023/09/23 00:56:07;;;;;;;0.20;0.20;;;12.20;99.90;;;;;;5074269;28;20496;-80
2023/09/23 00:58:36;;;;;;;0.10;0.10;;;12.20;99.90;;;;;;5088758;28;20527;-80
2023/09/23 01:01:03;;;;;;;0.20;0.20;;;12.20;99.90;;;;;;5091832;28;20431;-80
2023/09/23 01:03:30;;;;;;;0.20;0.20;;;12.20;99.90;;;;;;5073597;28;20508;-80
2023/09/23 01:06:03;;;;;;;0.20;0.20;;;12.30;99.90;;;;;;5087473;28;20538;-80
2023/09/23 01:08:29;;;;;;;0.20;0.20;;;12.30;99.90;;;;;;5084083;28;20466;-80
2023/09/23 01:10:55;;;;;;;0.20;0.20;;;12.40;99.90;;;;;;5089378;28;20442;-80
2023/09/23 01:13:23;;;;;;;0.20;0.20;;;12.40;99.90;;;;;;5110985;28;20956;-80
2023/09/23 01:15:50;;;;;;;0.10;0.10;;;12.40;99.90;;;;;;5094815;28;20185;-80
2023/09/23 01:18:15;;;;;;;0.20;0.20;;;12.40;99.90;;;;;;5097809;28;20538;-80
2023/09/23 01:20:44;;;;;;;0.20;0.20;;;12.40;99.90;;;;;;5091522;28;20874;-80
2023/09/23 01:23:10;;;;;;;0.20;0.20;;;12.40;99.90;;;;;;5090404;28;20523;-80
2023/09/23 01:25:36;;;;;;;0.20;0.20;;;12.40;99.90;;;;;;5085939;28;20434;-80
2023/09/23 01:28:12;;;;;;;0.20;0.20;;;12.40;99.90;;;;;;5088578;28;20443;-80
2023/09/23 01:30:43;;;;;;;0.20;0.20;;;12.30;99.90;;;;;;5073304;28;20742;-80
2023/09/23 01:33:10;;;;;;;0.20;0.20;;;12.40;99.90;;;;;;5088579;28;20478;-80
2023/09/23 01:35:36;;;;;;;0.20;0.20;;;12.40;99.90;;;;;;5072060;28;20439;-80
2023/09/23 01:38:03;;;;;;;0.20;0.20;;;12.40;99.90;;;;;;5088192;28;20438;-80
2023/09/23 01:40:31;;;;;;;0.10;0.10;;;12.40;99.90;;;;;;5080094;28;20177;-81
2023/09/23 01:42:57;;;;;;;0.20;0.20;;;12.40;99.90;;;;;;5089803;28;20446;-80
2023/09/23 01:45:25;;;;;;;0.20;0.20;;;12.40;99.90;;;;;;5088468;28;20431;-80
2023/09/23 01:47:51;;;;;;;0.10;0.10;;;12.50;99.90;;;;;;5082517;28;20430;-80
2023/09/23 01:50:20;;;;;;;0.20;0.20;;;12.50;99.90;;;;;;5090238;28;20718;-79
2023/09/23 01:52:46;;;;;;;0.20;0.20;;;12.40;99.90;;;;;;5109887;28;20208;-80
2023/09/23 01:55:12;;;;;;;0.20;0.20;;;12.40;99.90;;;;;;5106349;28;20456;-80
2023/09/23 01:57:38;;;;;;;0.20;0.20;;;12.40;99.90;;;;;;5090634;28;20185;-80
2023/09/23 02:00:06;;;;;;;0.20;0.20;;;12.40;99.90;;;;;;5088080;28;20248;-79
2023/09/23 02:02:32;;;;;;;0.20;0.20;;;12.40;99.90;;;;;;5088674;28;20443;-80
2023/09/23 02:04:59;;;;;;;0.20;0.20;;;12.40;99.90;;;;;;5087469;28;20444;-80
2023/09/23 02:07:26;;;;;;;0.10;0.10;;;12.50;99.90;;;;;;5068891;28;20521;-80
2023/09/23 02:09:52;;;;;;;0.10;0.10;;;12.50;99.90;;;;;;5085485;28;21011;-80
2023/09/23 02:12:17;;;;;;;0.10;0.10;;;12.50;99.90;;;;;;5096627;28;20474;-80
2023/09/23 02:14:43;;;;;;;0.10;0.10;;;12.50;99.90;;;;;;5054032;28;20460;-80
2023/09/23 02:17:08;;;;;;;0.20;0.20;;;12.50;99.90;;;;;;5086852;28;20636;-80
2023/09/23 02:19:35;;;;;;;0.20;0.20;;;12.50;99.90;;;;;;5081448;28;20759;-80
2023/09/23 02:22:05;;;;;;;0.13;0.13;;;12.50;99.90;;;;;;5081018;28;20587;-80
2023/09/23 02:24:33;;;;;;;0.10;0.10;;;12.50;99.90;;;;;;5090640;28;20648;-79
2023/09/23 02:26:58;;;;;;;0.10;0.10;;;12.50;99.90;;;;;;5099476;28;20442;-79
2023/09/23 02:29:24;;;;;;;0.20;0.20;;;12.40;99.90;;;;;;5081788;28;20442;-80
2023/09/23 02:31:50;;;;;;;0.20;0.20;;;12.40;99.90;;;;;;5089079;28;20185;-80
2023/09/23 02:34:17;;;;;;;0.10;0.10;;;12.40;99.90;;;;;;5069705;28;20217;-79
2023/09/23 02:36:45;;;;;;;0.00;0.00;;;12.40;99.90;;;;;;5087499;28;20439;-79
2023/09/23 02:39:16;;;;;;;0.10;0.10;;;12.40;99.90;;;;;;5089360;28;20454;-79
2023/09/23 02:41:45;;;;;;;0.03;0.03;;;12.40;99.90;;;;;;5089163;28;20435;-79
2023/09/23 02:44:20;;;;;;;0.20;0.20;;;12.30;99.90;;;;;;5088725;28;20435;-80
2023/09/23 02:46:46;;;;;;;0.20;0.20;;;12.30;99.90;;;;;;5084799;28;20435;-79
2023/09/23 02:49:15;;;;;;;0.20;0.20;;;12.30;99.90;;;;;;5089058;28;20943;-78
2023/09/23 02:51:42;;;;;;;0.10;0.10;;;12.20;99.90;;;;;;5089334;28;20439;-78
2023/09/23 02:54:09;;;;;;;0.20;0.20;;;12.20;99.90;;;;;;5089871;28;20474;-78
2023/09/23 02:56:35;;;;;;;0.20;0.20;;;12.20;99.90;;;;;;5095298;28;21144;-77
2023/09/23 02:59:11;;;;;;;0.20;0.20;;;12.10;99.90;;;;;;5110725;28;20469;-77
2023/09/23 03:01:37;;;;;;;0.20;0.20;;;12.00;99.90;;;;;;5096817;28;20435;-77
2023/09/23 03:04:16;;;;;;;0.20;0.20;;;12.00;99.90;;;;;;5074713;28;21470;-76
2023/09/23 03:06:43;;;;;;;0.20;0.20;;;12.00;99.90;;;;;;5088367;28;20478;-75
2023/09/23 03:09:10;;;;;;;0.20;0.20;;;12.00;99.90;;;;;;5088913;28;20569;-75
2023/09/23 03:11:42;;;;;;;0.20;0.20;;;12.00;99.90;;;;;;5096866;28;20443;-75
2023/09/23 03:14:12;;;;;;;0.20;0.20;;;12.00;99.90;;;;;;5089657;28;20479;-76
2023/09/23 03:16:44;;;;;;;0.20;0.20;;;12.00;99.90;;;;;;5086450;28;20526;-75
2023/09/23 03:19:10;;;;;;;0.20;0.20;;;12.00;99.90;;;;;;5080417;28;20466;-75
2023/09/23 03:21:42;;;;;;;0.20;0.20;;;12.00;99.90;;;;;;5084477;28;20431;-75
2023/09/23 03:24:10;;;;;;;0.20;0.20;;;12.10;99.90;;;;;;5092297;28;20239;-75
2023/09/23 03:26:36;;;;;;;0.20;0.20;;;12.10;99.90;;;;;;5093121;28;20446;-76
2023/09/23 03:29:03;;;;;;;0.20;0.20;;;12.10;99.90;;;;;;5093780;28;20436;-75
2023/09/23 03:31:28;;;;;;;0.20;0.20;;;12.10;99.90;;;;;;5080522;28;20476;-75
2023/09/23 03:33:55;;;;;;;0.20;0.20;;;12.10;99.90;;;;;;5073364;28;20475;-75
2023/09/23 03:36:24;;;;;;;0.17;0.17;;;12.10;99.90;;;;;;5080173;28;20304;-75
2023/09/23 03:38:51;;;;;;;0.20;0.20;;;12.10;99.90;;;;;;5087244;28;20512;-75
2023/09/23 03:41:17;;;;;;;0.10;0.10;;;12.20;99.90;;;;;;5109445;28;20434;-75
2023/09/23 03:43:43;;;;;;;0.20;0.20;;;12.20;99.90;;;;;;5093302;28;20439;-75
2023/09/23 03:46:14;;;;;;;0.10;0.10;;;12.20;99.90;;;;;;5090724;28;20208;-75
2023/09/23 03:48:40;;;;;;;0.10;0.10;;;12.20;99.90;;;;;;5092349;28;20750;-76
2023/09/23 03:51:09;;;;;;;0.20;0.20;;;12.20;99.90;;;;;;5091929;28;20537;-76
2023/09/23 03:53:35;;;;;;;0.20;0.20;;;12.10;99.90;;;;;;5088941;28;20308;-75
2023/09/23 03:56:01;;;;;;;0.20;0.20;;;12.10;99.90;;;;;;5088786;28;20773;-76
2023/09/23 03:58:27;;;;;;;0.17;0.17;;;12.10;99.90;;;;;;5098424;28;20526;-75
2023/09/23 04:00:54;;;;;;;0.10;0.10;;;12.10;99.90;;;;;;5105063;28;20275;-76
2023/09/23 04:03:20;;;;;;;0.20;0.20;;;12.10;99.90;;;;;;5093330;28;20521;-76
2023/09/23 04:05:57;;;;;;;0.10;0.10;;;12.00;99.90;;;;;;5101874;28;20537;-76
2023/09/23 04:08:24;;;;;;;0.10;0.10;;;12.10;99.90;;;;;;5092223;28;20188;-75
2023/09/23 04:10:50;;;;;;;0.20;0.20;;;12.10;99.90;;;;;;5096495;28;20438;-75
2023/09/23 04:13:16;;;;;;;0.20;0.20;;;12.00;99.90;;;;;;5092564;28;20957;-76
2023/09/23 04:15:42;;;;;;;0.20;0.20;;;12.10;99.90;;;;;;5092734;28;20454;-76
2023/09/23 04:18:09;;;;;;;0.20;0.20;;;12.10;99.90;;;;;;5091626;28;20660;-76
2023/09/23 04:20:37;;;;;;;0.10;0.10;;;12.20;99.90;;;;;;5090500;28;20471;-76
2023/09/23 04:23:03;;;;;;;0.20;0.20;;;12.20;99.90;;;;;;5091421;28;20467;-76
2023/09/23 04:25:29;;;;;;;0.20;0.20;;;12.20;99.90;;;;;;5093203;28;20438;-76
2023/09/23 04:27:54;;;;;;;0.10;0.10;;;12.20;99.90;;;;;;5091978;28;20465;-76
2023/09/23 04:30:22;;;;;;;0.20;0.20;;;12.20;99.90;;;;;;5091036;28;20197;-76
2023/09/23 04:32:47;;;;;;;0.20;0.20;;;12.20;99.90;;;;;;5073906;28;20231;-75
2023/09/23 04:35:14;;;;;;;0.10;0.10;;;12.20;99.90;;;;;;5090003;28;20455;-75
2023/09/23 04:37:39;;;;;;;0.20;0.20;;;12.20;99.90;;;;;;5088178;28;20189;-75
2023/09/23 04:40:10;;;;;;;0.20;0.20;;;12.20;99.90;;;;;;5086666;28;20568;-76
2023/09/23 04:42:37;;;;;;;0.10;0.10;;;12.20;99.90;;;;;;5095284;28;20250;-76
2023/09/23 04:45:07;;;;;;;0.20;0.20;;;12.20;99.90;;;;;;5091852;28;20886;-75
2023/09/23 04:47:33;;;;;;;0.10;0.10;;;12.20;99.90;;;;;;5091785;28;20419;-76
2023/09/23 04:50:00;;;;;;;0.10;0.10;;;12.20;99.90;;;;;;5091473;28;20492;-75
2023/09/23 04:52:28;;;;;;;0.10;0.10;;;12.20;99.90;;;;;;5090635;28;20224;-76
2023/09/23 04:54:54;;;;;;;0.10;0.10;;;12.20;99.90;;;;;;5091798;28;20453;-76
2023/09/23 04:57:20;;;;;;;0.10;0.10;;;12.20;99.90;;;;;;5091998;28;20518;-76
2023/09/23 04:59:46;;;;;;;0.20;0.20;;;12.20;99.90;;;;;;5090953;28;20558;-76
2023/09/23 05:02:17;;;;;;;0.10;0.10;;;12.30;99.90;;;;;;5086711;28;20950;-75
2023/09/23 05:04:45;;;;;;;0.20;0.20;;;12.10;99.90;;;;;;5094327;28;20838;-75
2023/09/23 05:07:13;;;;;;;0.10;0.10;;;12.10;99.90;;;;;;5094406;28;22186;-76
2023/09/23 05:09:40;;;;;;;0.10;0.10;;;12.10;99.90;;;;;;5088450;28;20439;-76
2023/09/23 05:12:08;;;;;;;0.20;0.20;;;12.00;99.90;;;;;;5075506;28;20450;-75
2023/09/23 05:14:34;;;;;;;0.20;0.20;;;12.00;99.90;;;;;;5089949;28;20533;-76
2023/09/23 05:16:59;;;;;;;0.20;0.20;;;12.10;99.90;;;;;;5089428;28;20542;-77
2023/09/23 05:19:27;;;;;;;0.10;0.10;;;12.00;99.90;;;;;;5091389;28;20181;-76
2023/09/23 05:21:53;;;;;;;0.10;0.10;;;12.00;99.90;;;;;;5088558;28;20196;-76
2023/09/23 05:24:21;;;;;;;0.10;0.10;;;12.10;99.90;;;;;;5094015;28;20826;-76
2023/09/23 05:26:51;;;;;;;0.20;0.20;;;12.00;99.90;;;;;;5085189;28;20222;-77
2023/09/23 05:29:17;;;;;;;0.20;0.20;;;12.10;99.90;;;;;;5085406;28;20507;-76
2023/09/23 05:31:43;;;;;;;0.20;0.20;;;12.00;99.90;;;;;;5082064;28;20455;-77
2023/09/23 05:34:09;;;;;;;0.20;0.20;;;12.00;99.90;;;;;;5085085;28;20235;-77
2023/09/23 05:36:35;;;;;;;0.10;0.10;;;12.00;99.90;;;;;;5087505;28;21003;-76
2023/09/23 05:39:00;;;;;;;0.20;0.20;;;12.10;99.90;;;;;;5090720;28;20541;-76
2023/09/23 05:41:26;;;;;;;0.20;0.20;;;12.20;99.90;;;;;;5089802;28;20199;-76
2023/09/23 05:43:52;;;;;;;0.20;0.20;;;12.10;99.90;;;;;;5087916;28;20591;-76
2023/09/23 05:46:18;;;;;;;0.20;0.20;;;12.20;99.90;;;;;;5093916;28;20184;-77
2023/09/23 05:48:44;;;;;;;0.13;0.13;;;12.20;99.90;;;;;;5086962;28;20496;-76
2023/09/23 05:51:10;;;;;;;0.10;0.10;;;12.30;99.90;;;;;;5089727;28;20443;-77
2023/09/23 05:53:38;;;;;;;0.10;0.10;;;12.40;99.90;;;;;;5090649;28;20225;-76
2023/09/23 05:56:04;;;;;;;0.10;0.10;;;12.50;99.90;;;;;;5091063;28;20268;-74
2023/09/23 05:58:29;;;;;;;0.20;0.20;;;12.40;99.90;;;;;;5089336;28;20481;-77
2023/09/23 06:00:55;;;;;;;0.10;0.10;;;12.40;99.90;;;;;;5085433;28;20254;-77
2023/09/23 06:03:20;;;;;;;0.20;0.20;;;12.40;99.90;;;;;;5083000;28;20194;-77
2023/09/23 06:05:46;;;;;;;0.20;0.20;;;12.40;99.90;;;;;;5084196;28;20198;-77
2023/09/23 06:08:12;;;;;;;0.10;0.10;;;12.50;99.90;;;;;;5084489;28;20235;-77
2023/09/23 06:10:39;;;;;;;0.10;0.10;;;12.50;99.90;;;;;;5089940;28;20199;-77
2023/09/23 06:13:05;;;;;;;0.20;0.20;;;12.50;99.90;;;;;;5106266;28;20484;-77
2023/09/23 06:15:31;;;;;;;0.10;0.10;;;12.50;99.90;;;;;;5092237;28;20446;-76
2023/09/23 06:17:57;;;;;;;0.10;0.10;;;12.50;99.90;;;;;;5103296;28;20490;-77
2023/09/23 06:20:22;;;;;;;0.20;0.20;;;12.50;99.90;;;;;;5087731;28;21049;-77
2023/09/23 06:22:48;;;;;;;0.10;0.10;;;12.50;99.90;;;;;;5097486;28;20192;-77
2023/09/23 06:25:14;;;;;;;0.10;0.10;;;12.50;99.90;;;;;;5094834;28;20188;-77
2023/09/23 06:27:39;;;;;;;0.20;0.20;;;12.50;99.90;;;;;;5078200;28;20192;-77
2023/09/23 06:30:06;;;;;;;0.10;0.10;;;12.50;99.90;;;;;;5084780;28;20204;-77
2023/09/23 06:32:35;;;;;;;0.10;0.10;;;12.50;99.90;;;;;;5083929;28;20216;-79
2023/09/23 06:35:02;;;;;;;0.10;0.10;;;12.60;99.90;;;;;;5086871;28;20446;-79
2023/09/23 06:37:28;;;;;;;0.20;0.20;;;12.50;99.90;;;;;;5083864;28;20438;-79
2023/09/23 06:39:53;;;;;;;0.10;0.10;;;12.60;99.90;;;;;;5084650;28;20447;-78
2023/09/23 06:42:19;;;;;;;0.20;0.20;;;12.60;99.90;;;;;;5083474;28;20482;-78
2023/09/23 06:44:46;;;;;;;0.20;0.20;;;12.50;99.90;;;;;;5084646;28;20193;-77
2023/09/23 06:47:11;;;;;;;0.10;0.10;;;12.60;99.90;;;;;;5073570;28;20603;-77
2023/09/23 06:49:38;;;;;;;0.10;0.10;;;12.70;99.90;;;;;;5085045;28;20448;-77
2023/09/23 06:52:04;;;;;;;0.10;0.10;;;12.80;99.90;;;;;;5081397;28;20234;-77
2023/09/23 06:54:29;;;;;;;0.10;0.10;;;12.80;99.90;;;;;;5088853;28;20486;-77
2023/09/23 06:56:55;;;;;;;0.10;0.10;;;12.70;99.90;;;;;;5091285;28;20589;-77
2023/09/23 06:59:21;;;;;;;0.10;0.10;;;12.80;99.90;;;;;;5091081;28;20224;-77
2023/09/23 07:01:46;;;;;;;0.20;0.20;;;12.80;99.90;;;;;;5086917;28;20599;-77
2023/09/23 07:04:12;;;;;;;0.17;0.17;;;12.90;99.90;;;;;;5078065;28;20431;-77
2023/09/23 07:06:37;;;;;;;0.10;0.10;;;12.90;99.90;;;;;;5072595;28;20687;-78
2023/09/23 07:09:04;;;;;;;0.10;0.10;;;12.90;99.90;;;;;;5071670;28;20311;-77
2023/09/23 07:11:30;;;;;;;0.00;0.00;;;13.00;99.90;;;;;;5055481;28;20182;-78
2023/09/23 07:13:58;;;;;;;0.10;0.10;;;13.00;99.90;;;;;;5085968;28;20882;-78
2023/09/23 07:16:24;;;;;;;0.10;0.10;;;13.10;99.90;;;;;;5085603;28;20441;-77
2023/09/23 07:18:50;;;;;;;0.10;0.10;;;13.00;99.90;;;;;;5092310;28;20435;-77
2023/09/23 07:21:16;;;;;;;0.10;0.10;;;13.00;99.90;;;;;;5089655;28;21011;-79
2023/09/23 07:23:42;;;;;;;0.10;0.10;;;13.10;99.90;;;;;;5092914;28;20447;-78
2023/09/23 07:26:07;;;;;;;0.10;0.10;;;13.10;99.90;;;;;;5079623;28;20656;-79
2023/09/23 07:28:33;;;;;;;0.10;0.10;;;13.20;99.90;;;;;;5072989;28;20270;-78
2023/09/23 07:30:58;;;;;;;0.20;0.20;;;13.20;99.90;;;;;;5086176;28;20196;-77
2023/09/23 07:33:24;;;;;;;0.10;0.10;;;13.20;99.90;;;;;;5089785;28;20217;-78
2023/09/23 07:35:50;;;;;;;0.10;0.10;;;13.10;99.90;;;;;;5089220;28;20200;-78
2023/09/23 07:38:15;;;;;;;0.10;0.10;;;13.20;99.90;;;;;;5092331;28;20185;-78
2023/09/23 07:40:41;;;;;;;0.10;0.10;;;13.20;99.90;;;;;;5083797;28;20185;-76
2023/09/23 07:43:07;;;;;;;0.10;0.10;;;13.30;99.90;;;;;;5093582;28;20193;-79
2023/09/23 07:45:33;;;;;;;0.10;0.10;;;13.40;99.90;;;;;;5087631;28;20177;-79
2023/09/23 07:47:59;;;;;;;0.10;0.10;;;13.50;99.90;;;;;;5088589;28;20451;-77
2023/09/23 07:50:24;;;;;;;0.00;0.00;;;13.70;99.90;;;;;;5090101;28;20446;-78
2023/09/23 07:52:50;;;;;;;0.00;0.00;;;14.00;99.90;;;;;;5074547;28;20223;-78
2023/09/23 07:55:15;;;;;;;0.07;0.07;;;14.20;99.90;;;;;;5092837;28;20186;-78
2023/09/23 07:57:41;;;;;;;0.10;0.10;;;14.20;99.90;;;;;;5068231;28;20658;-78
2023/09/23 08:00:08;;;;;;;0.10;0.10;;;14.20;99.90;;;;;;5085801;28;20300;-79
2023/09/23 08:02:35;;;;;;;0.10;0.10;;;14.10;99.90;;;;;;5070891;28;20181;-79
2023/09/23 08:05:04;;;;;;;0.10;0.10;;;14.10;99.90;;;;;;5074581;28;20496;-80
2023/09/23 08:07:32;;;;;;;0.10;0.10;;;14.20;99.90;;;;;;5075011;28;20431;-80
2023/09/23 08:09:58;;;;;;;0.10;0.10;;;14.20;99.90;;;;;;5086114;28;20525;-80
2023/09/23 08:12:24;;;;;;;0.10;0.10;;;14.00;99.90;;;;;;5072439;28;20943;-79
2023/09/23 08:14:51;;;;;;;0.10;0.10;;;14.00;99.90;;;;;;5083701;28;20441;-79
2023/09/23 08:17:17;;;;;;;0.10;0.10;;;13.90;99.90;;;;;;5086706;28;20411;-80
2023/09/23 08:19:43;;;;;;;0.10;0.10;;;13.90;99.90;;;;;;5060295;28;20925;-80
2023/09/23 08:22:09;;;;;;;0.00;0.00;;;13.90;99.90;;;;;;5077437;28;20426;-80
2023/09/23 08:24:35;;;;;;;0.10;0.10;;;13.90;99.90;;;;;;5079752;28;20419;-80
2023/09/23 08:27:05;;;;;;;0.00;0.00;;;14.10;99.90;;;;;;5083742;28;20178;-78
2023/09/23 08:29:30;;;;;;;0.10;0.10;;;14.10;99.90;;;;;;5057933;28;20177;-80
2023/09/23 08:31:56;;;;;;;0.10;0.10;;;14.20;99.90;;;;;;5076840;28;20436;-80
2023/09/23 08:34:21;;;;;;;0.10;0.10;;;14.20;99.90;;;;;;5094008;28;20720;-79
2023/09/23 08:36:47;;;;;;;0.00;0.00;;;14.20;99.90;;;;;;5091260;28;20259;-81
2023/09/23 08:39:14;;;;;;;0.07;0.07;;;14.20;99.90;;;;;;5096291;28;20234;-82
2023/09/23 08:41:42;;;;;;;0.00;0.00;;;14.20;99.90;;;;;;5073696;28;20181;-82
2023/09/23 08:44:09;;;;;;;0.00;0.00;;;14.10;99.90;;;;;;5088643;28;21251;-81
2023/09/23 08:46:35;;;;;;;0.10;0.10;;;14.00;99.90;;;;;;5082276;28;20432;-79
2023/09/23 08:49:01;;;;;;;0.10;0.10;;;13.90;99.90;;;;;;5089037;28;20541;-79
2023/09/23 08:51:27;;;;;;;0.00;0.00;;;14.00;99.90;;;;;;5068998;28;20211;-78
2023/09/23 08:53:54;;;;;;;0.00;0.00;;;13.90;99.90;;;;;;5085757;28;20217;-79
2023/09/23 08:56:20;;;;;;;0.10;0.10;;;13.90;99.90;;;;;;5073484;28;20443;-79
2023/09/23 08:58:48;;;;;;;0.10;0.10;;;13.90;99.90;;;;;;5088798;28;21125;-80
2023/09/23 09:01:15;;;;;;;0.20;0.20;;;13.80;99.90;;;;;;5090677;28;20870;-79
2023/09/23 09:03:40;;;;;;;0.10;0.10;;;13.90;99.90;;;;;;5088731;28;20446;-80
2023/09/23 09:06:19;;;;;;;0.10;0.10;;;13.90;99.90;;;;;;5089331;28;20443;-79
2023/09/23 09:08:44;;;;;;;0.10;0.10;;;14.00;99.90;;;;;;5089120;28;20189;-79
2023/09/23 09:11:10;;;;;;;0.00;0.00;;;14.10;99.90;;;;;;5077754;28;20446;-79
2023/09/23 09:13:36;;;;;;;0.03;0.03;;;14.60;99.90;;;;;;5091506;28;20217;-79
2023/09/23 09:16:06;;;;;;;0.00;0.00;;;14.80;99.90;;;;;;5098851;28;20185;-81
2023/09/23 09:18:32;;;;;;;0.00;0.00;;;15.10;99.90;;;;;;5107372;28;20441;-81
2023/09/23 09:20:58;;;;;;;0.00;0.00;;;15.40;99.90;;;;;;5099227;28;20433;-82
2023/09/23 09:23:29;;;;;;;0.00;0.00;;;15.60;99.90;;;;;;5106052;28;20434;-79
2023/09/23 09:25:55;;;;;;;0.10;0.10;;;15.40;99.90;;;;;;5103953;28;20176;-82
2023/09/23 09:28:20;;;;;;;0.00;0.00;;;15.10;99.90;;;;;;5098807;28;20842;-82
2023/09/23 09:30:53;;;;;;;0.10;0.10;;;15.30;99.90;;;;;;5097563;28;20195;-81
2023/09/23 09:33:21;;;;;;;0.03;0.03;;;15.60;99.90;;;;;;5110042;28;20209;-82
2023/09/23 09:35:47;;;;;;;0.10;0.10;;;16.00;99.90;;;;;;5080452;28;20442;-82
2023/09/23 09:38:15;;;;;;;0.10;0.10;;;16.60;99.90;;;;;;5099559;28;20431;-80
2023/09/23 09:40:41;;;;;;;0.10;0.10;;;16.80;99.90;;;;;;5094784;28;20265;-82
2023/09/23 09:43:07;;;;;;;0.10;0.10;;;16.80;99.90;;;;;;5099891;28;20554;-81
2023/09/23 09:45:40;;;;;;;0.00;0.00;;;17.10;99.90;;;;;;5086094;28;20177;-82
2023/09/23 09:48:08;;;;;;;0.00;0.00;;;17.30;99.90;;;;;;5086785;28;20440;-83
2023/09/23 09:50:38;;;;;;;0.00;0.00;;;17.40;99.90;;;;;;5084464;28;20473;-83
2023/09/23 09:53:06;;;;;;;0.00;0.00;;;17.60;99.90;;;;;;5094438;28;20471;-82
2023/09/23 09:55:32;;;;;;;0.00;0.00;;;17.20;99.90;;;;;;5095121;28;20452;-83
2023/09/23 09:58:01;;;;;;;0.00;0.00;;;17.30;99.90;;;;;;5105920;28;20419;-82
2023/09/23 10:00:34;;;;;;;0.00;0.00;;;17.10;99.90;;;;;;5093924;28;20463;-82
2023/09/23 10:03:08;;;;;;;0.10;0.00;;;17.10;99.90;;;;;;5091009;28;20514;-85
2023/09/23 10:05:39;;;;;;;0.00;0.00;;;17.30;99.90;;;;;;5089815;28;20795;-82
2023/09/23 10:08:13;;;;;;;0.00;0.00;;;17.20;99.90;;;;;;5074669;28;20449;-82
2023/09/23 10:10:44;;;;;;;0.00;0.00;;;17.00;99.90;;;;;;5074968;28;20525;-83
2023/09/23 10:13:24;;;;;;;0.00;0.00;;;16.70;99.90;;;;;;5078631;28;20846;-80
2023/09/23 10:15:50;;;;;;;0.00;0.00;;;16.80;99.90;;;;;;5079869;28;20989;-83
2023/09/23 10:18:19;;;;;;;0.00;0.00;;;17.00;99.90;;;;;;5094913;28;20531;-83
2023/09/23 10:20:51;;;;;;;0.00;0.00;;;17.50;99.90;;;;;;5099228;28;20973;-83
2023/09/23 10:23:19;;;;;;;0.00;0.00;;;17.70;99.90;;;;;;5086627;28;20482;-83
2023/09/23 10:25:46;;;;;;;0.00;0.00;;;17.60;99.90;;;;;;5090430;28;20435;-83
2023/09/23 10:28:23;;;;;;;0.00;0.00;;;17.60;99.90;;;;;;5096972;28;20971;-84
2023/09/23 10:31:06;;;;;;;0.10;0.00;;;17.60;99.90;;;;;;5096581;28;20950;-84
2023/09/23 10:33:34;;;;;;;0.00;0.00;;;18.20;99.90;;;;;;5092362;28;20483;-84
2023/09/23 10:36:04;;;;;;;0.00;0.00;;;18.10;99.90;;;;;;5092240;28;20439;-84
2023/09/23 10:38:34;;;;;;;0.00;0.00;;;18.70;99.90;;;;;;5092729;28;20451;-82
2023/09/23 10:41:00;;;;;;;0.00;0.00;;;19.10;99.90;;;;;;5100400;28;20509;-83
2023/09/23 10:43:26;;;;;;;0.00;0.00;;;19.40;99.90;;;;;;5087165;28;20525;-85
2023/09/23 10:45:53;;;;;;;0.00;0.00;;;19.70;99.90;;;;;;5089203;28;20431;-87
2023/09/23 10:48:20;;;;;;;0.00;0.00;;;19.90;99.90;;;;;;5088654;28;20437;-83
2023/09/23 10:50:46;;;;;;;0.00;0.00;;;20.10;99.90;;;;;;5090487;28;20427;-85
2023/09/23 10:53:13;;;;;;;0.00;0.00;;;19.90;99.90;;;;;;5071269;28;21044;-86
2023/09/23 10:55:39;;;;;;;0.00;0.00;;;19.70;99.90;;;;;;5087594;28;20200;-86
2023/09/23 10:58:09;;;;;;;0.00;0.00;;;20.10;99.90;;;;;;5059001;28;20843;-84
2023/09/23 11:00:38;;;;;;;0.00;0.00;;;20.60;99.90;;;;;;5075842;28;20528;-87
2023/09/23 11:03:11;;;;;;;0.07;0.00;;;21.00;99.90;;;;;;5083936;28;20485;-85
2023/09/23 11:05:39;;;;;;;0.00;0.00;;;21.60;99.90;;;;;;5089154;28;20923;-84
2023/09/23 11:08:12;;;;;;;0.10;0.00;;;21.80;99.90;;;;;;5075163;28;20431;-83
2023/09/23 11:10:48;;;;;;;0.10;0.00;;;22.10;99.90;;;;;;5073431;28;20458;-85
2023/09/23 11:13:14;;;;;;;0.10;0.00;;;22.10;99.90;;;;;;5087447;28;20474;-84
2023/09/23 11:15:43;;;;;;;0.10;0.00;;;22.60;99.90;;;;;;5080318;28;21023;-83
2023/09/23 11:18:18;;;;;;;0.10;0.00;;;22.10;99.90;;;;;;5088422;28;20431;-83
2023/09/23 11:20:46;;;;;;;0.00;0.00;;;22.40;99.90;;;;;;5089712;28;20480;-84
2023/09/23 11:23:13;;;;;;;0.00;0.00;;;22.30;99.90;;;;;;5098807;28;20435;-82
2023/09/23 11:25:41;;;;;;;0.00;0.00;;;22.10;99.90;;;;;;5104731;28;20984;-83
2023/09/23 11:28:15;;;;;;;0.10;0.00;;;22.30;99.90;;;;;;5107276;28;20430;-83
2023/09/23 11:30:41;;;;;;;0.00;0.00;;;22.20;99.90;;;;;;5094211;28;20441;-83
2023/09/23 11:33:06;;;;;;;0.00;0.00;;;22.70;99.90;;;;;;5094375;28;20471;-84
2023/09/23 11:35:33;;;;;;;0.00;0.00;;;22.20;99.90;;;;;;5097273;28;20639;-83
2023/09/23 11:37:58;;;;;;;0.00;0.00;;;21.70;99.90;;;;;;5107011;28;20173;-81
2023/09/23 11:40:24;;;;;;;0.00;0.00;;;22.00;99.90;;;;;;5092203;28;20439;-85
2023/09/23 11:42:50;;;;;;;0.00;0.00;;;21.90;99.90;;;;;;5101492;28;20276;-85
2023/09/23 11:45:15;;;;;;;0.00;0.00;;;22.60;99.90;;;;;;5095593;28;20184;-82
2023/09/23 11:47:41;;;;;;;0.00;0.00;;;22.90;99.90;;;;;;5096329;28;20439;-85
2023/09/23 11:50:07;;;;;;;0.07;0.00;;;23.10;99.90;;;;;;5084599;28;20198;-86
2023/09/23 11:52:33;;;;;;;0.10;0.00;;;21.80;99.90;;;;;;5087991;28;20202;-86
2023/09/23 11:54:59;;;;;;;0.00;0.00;;;21.80;99.90;;;;;;5092590;28;20457;-85
2023/09/23 11:57:26;;;;;;;0.10;0.00;;;20.90;99.90;;;;;;5108158;28;20430;-85
2023/09/23 11:59:51;;;;;;;0.00;0.00;;;20.60;99.90;;;;;;5076857;28;20352;-86
2023/09/23 12:02:19;;;;;;;0.00;0.00;;;20.00;99.90;;;;;;5079037;28;20471;-84
2023/09/23 12:04:46;;;;;;;0.00;0.00;;;19.50;99.90;;;;;;5102825;28;20188;-83
2023/09/23 12:07:14;;;;;;;0.00;0.00;;;19.10;99.90;;;;;;5111833;28;20433;-86
2023/09/23 12:09:40;;;;;;;0.00;0.00;;;19.00;99.90;;;;;;5078831;28;20459;-84
2023/09/23 12:12:06;;;;;;;0.00;0.00;;;19.90;99.90;;;;;;5077414;28;20443;-86
2023/09/23 12:14:31;;;;;;;0.07;0.00;;;19.50;99.90;;;;;;5085844;28;20242;-83
2023/09/23 12:16:57;;;;;;;0.00;0.00;;;19.20;99.90;;;;;;5099485;28;20488;-85
2023/09/23 12:19:23;;;;;;;0.00;0.00;;;18.70;99.90;;;;;;5093387;28;20665;-87
2023/09/23 12:21:49;;;;;;;0.10;0.00;;;17.80;99.90;;;;;;5091653;28;20194;-84
2023/09/23 12:24:15;;;;;;;0.10;0.10;;;17.90;99.90;;;;;;5074358;28;20195;-84
2023/09/23 12:26:40;;;;;;;0.10;0.00;;;18.00;99.90;;;;;;5079553;28;20446;-83
2023/09/23 12:29:06;;;;;;;0.10;0.10;;;18.10;99.90;;;;;;5098792;28;20204;-82
2023/09/23 12:31:31;;;;;;;0.10;0.10;;;18.00;99.90;;;;;;5079108;28;20189;-84
2023/09/23 12:33:57;;;;;;;0.10;0.10;;;17.80;99.90;;;;;;5084056;28;20292;-83
2023/09/23 12:36:23;;;;;;;0.10;0.10;;;17.90;99.90;;;;;;5074534;28;20189;-83
2023/09/23 12:38:49;;;;;;;0.10;0.10;;;18.20;99.90;;;;;;5092001;28;20188;-83
2023/09/23 12:41:15;;;;;;;0.10;0.10;;;18.80;99.90;;;;;;5098935;28;20518;-84
2023/09/23 12:43:40;;;;;;;0.10;0.10;;;19.40;99.90;;;;;;5084128;28;20181;-84
2023/09/23 12:46:06;;;;;;;0.10;0.00;;;19.20;99.90;;;;;;5098584;28;20779;-85
2023/09/23 12:48:31;;;;;;;0.10;0.00;;;19.50;99.90;;;;;;5083380;28;20191;-84